sensor_id;sensor_type;location;lat;lon;timestamp;P1;durP1;ratioP1;P2;durP2;ratioP2
70455;SDS011;57916;51.996;5.180;2023-01-19T00:00:29;17.37;;;10.73;;
70455;SDS011;57916;51.996;5.180;2023-01-19T00:02:56;22.85;;;11.00;;
70455;SDS011;57916;51.996;5.180;2023-01-19T00:05:23;25.05;;;11.55;;
70455;SDS011;57916;51.996;5.180;2023-01-19T00:07:50;21.17;;;11.02;;
70455;SDS011;57916;51.996;5.180;2023-01-19T00:10:16;27.42;;;10.95;;
70455;SDS011;57916;51.996;5.180;2023-01-19T00:12:43;22.85;;;10.90;;
70455;SDS011;57916;51.996;5.180;2023-01-19T00:15:10;20.73;;;10.25;;
70455;SDS011;57916;51.996;5.180;2023-01-19T00:17:37;26.88;;;9.63;;
70455;SDS011;57916;51.996;5.180;2023-01-19T00:20:07;23.27;;;10.27;;
70455;SDS011;57916;51.996;5.180;2023-01-19T00:22:34;20.40;;;10.85;;
70455;SDS011;57916;51.996;5.180;2023-01-19T00:25:04;22.83;;;10.63;;
70455;SDS011;57916;51.996;5.180;2023-01-19T00:27:31;21.52;;;10.60;;
70455;SDS011;57916;51.996;5.180;2023-01-19T00:30:00;21.23;;;10.32;;
70455;SDS011;57916;51.996;5.180;2023-01-19T00:32:27;17.90;;;10.18;;
70455;SDS011;57916;51.996;5.180;2023-01-19T00:34:54;24.92;;;10.05;;
70455;SDS011;57916;51.996;5.180;2023-01-19T00:37:21;18.75;;;10.20;;
70455;SDS011;57916;51.996;5.180;2023-01-19T00:39:48;19.67;;;9.68;;
70455;SDS011;57916;51.996;5.180;2023-01-19T00:42:15;19.33;;;9.20;;
70455;SDS011;57916;51.996;5.180;2023-01-19T00:45:00;18.20;;;9.43;;
70455;SDS011;57916;51.996;5.180;2023-01-19T00:47:27;23.37;;;9.50;;
70455;SDS011;57916;51.996;5.180;2023-01-19T00:49:54;20.00;;;9.60;;
70455;SDS011;57916;51.996;5.180;2023-01-19T00:52:21;18.30;;;9.48;;
70455;SDS011;57916;51.996;5.180;2023-01-19T00:54:47;17.73;;;9.47;;
70455;SDS011;57916;51.996;5.180;2023-01-19T00:57:14;24.55;;;10.25;;
70455;SDS011;57916;51.996;5.180;2023-01-19T00:59:42;21.35;;;8.75;;
70455;SDS011;57916;51.996;5.180;2023-01-19T01:02:08;15.30;;;7.70;;
70455;SDS011;57916;51.996;5.180;2023-01-19T01:04:37;14.27;;;5.72;;
70455;SDS011;57916;51.996;5.180;2023-01-19T01:07:04;8.93;;;4.38;;
70455;SDS011;57916;51.996;5.180;2023-01-19T01:09:31;4.35;;;2.55;;
70455;SDS011;57916;51.996;5.180;2023-01-19T01:11:58;3.80;;;2.05;;
70455;SDS011;57916;51.996;5.180;2023-01-19T01:14:25;3.50;;;2.20;;
70455;SDS011;57916;51.996;5.180;2023-01-19T01:16:51;3.50;;;1.67;;
70455;SDS011;57916;51.996;5.180;2023-01-19T01:19:19;2.33;;;1.60;;
70455;SDS011;57916;51.996;5.180;2023-01-19T01:21:46;4.53;;;1.38;;
70455;SDS011;57916;51.996;5.180;2023-01-19T01:24:13;1.30;;;1.20;;
70455;SDS011;57916;51.996;5.180;2023-01-19T01:26:40;4.10;;;1.10;;
70455;SDS011;57916;51.996;5.180;2023-01-19T01:29:07;1.85;;;1.17;;
70455;SDS011;57916;51.996;5.180;2023-01-19T01:31:34;1.20;;;1.10;;
70455;SDS011;57916;51.996;5.180;2023-01-19T01:34:00;2.03;;;1.00;;
70455;SDS011;57916;51.996;5.180;2023-01-19T01:36:27;2.15;;;1.00;;
70455;SDS011;57916;51.996;5.180;2023-01-19T01:38:57;2.38;;;1.00;;
70455;SDS011;57916;51.996;5.180;2023-01-19T01:41:24;3.67;;;0.90;;
70455;SDS011;57916;51.996;5.180;2023-01-19T01:43:53;3.72;;;1.00;;
70455;SDS011;57916;51.996;5.180;2023-01-19T01:46:28;3.17;;;0.70;;
70455;SDS011;57916;51.996;5.180;2023-01-19T01:48:59;1.88;;;0.50;;
70455;SDS011;57916;51.996;5.180;2023-01-19T01:54:15;8.18;;;0.60;;
70455;SDS011;57916;51.996;5.180;2023-01-19T01:56:50;4.47;;;0.40;;
70455;SDS011;57916;51.996;5.180;2023-01-19T01:59:29;7.43;;;0.57;;
70455;SDS011;57916;51.996;5.180;2023-01-19T02:02:05;10.35;;;0.75;;
70455;SDS011;57916;51.996;5.180;2023-01-19T02:04:56;8.70;;;0.85;;
70455;SDS011;57916;51.996;5.180;2023-01-19T02:07:35;8.02;;;0.70;;
70455;SDS011;57916;51.996;5.180;2023-01-19T02:10:28;10.05;;;0.98;;
70455;SDS011;57916;51.996;5.180;2023-01-19T02:13:15;7.50;;;0.80;;
70455;SDS011;57916;51.996;5.180;2023-01-19T02:15:52;11.20;;;1.20;;
70455;SDS011;57916;51.996;5.180;2023-01-19T02:18:22;3.80;;;0.70;;
70455;SDS011;57916;51.996;5.180;2023-01-19T02:21:00;9.75;;;0.93;;
70455;SDS011;57916;51.996;5.180;2023-01-19T02:23:45;6.78;;;0.50;;
70455;SDS011;57916;51.996;5.180;2023-01-19T02:26:18;10.88;;;0.82;;
70455;SDS011;57916;51.996;5.180;2023-01-19T02:28:56;4.38;;;0.50;;
70455;SDS011;57916;51.996;5.180;2023-01-19T02:31:25;2.80;;;0.32;;
70455;SDS011;57916;51.996;5.180;2023-01-19T02:33:53;1.60;;;0.50;;
70455;SDS011;57916;51.996;5.180;2023-01-19T02:36:25;2.60;;;0.40;;
70455;SDS011;57916;51.996;5.180;2023-01-19T02:38:55;3.00;;;0.30;;
70455;SDS011;57916;51.996;5.180;2023-01-19T02:41:26;6.65;;;0.65;;
70455;SDS011;57916;51.996;5.180;2023-01-19T02:43:56;6.03;;;0.47;;
70455;SDS011;57916;51.996;5.180;2023-01-19T02:46:24;4.63;;;0.45;;
70455;SDS011;57916;51.996;5.180;2023-01-19T02:48:51;4.93;;;0.40;;
70455;SDS011;57916;51.996;5.180;2023-01-19T02:51:22;3.25;;;0.40;;
70455;SDS011;57916;51.996;5.180;2023-01-19T03:10:41;2.70;;;0.43;;
70455;SDS011;57916;51.996;5.180;2023-01-19T03:13:28;3.17;;;0.40;;
70455;SDS011;57916;51.996;5.180;2023-01-19T03:16:06;5.95;;;0.40;;
70455;SDS011;57916;51.996;5.180;2023-01-19T03:18:39;2.30;;;0.30;;
70455;SDS011;57916;51.996;5.180;2023-01-19T03:21:10;4.32;;;0.43;;
70455;SDS011;57916;51.996;5.180;2023-01-19T03:23:39;4.00;;;0.30;;
70455;SDS011;57916;51.996;5.180;2023-01-19T03:26:09;2.17;;;0.30;;
70455;SDS011;57916;51.996;5.180;2023-01-19T03:28:40;1.98;;;0.30;;
70455;SDS011;57916;51.996;5.180;2023-01-19T03:31:16;1.20;;;0.30;;
70455;SDS011;57916;51.996;5.180;2023-01-19T03:33:49;6.40;;;0.40;;
70455;SDS011;57916;51.996;5.180;2023-01-19T03:36:19;3.38;;;0.40;;
70455;SDS011;57916;51.996;5.180;2023-01-19T03:39:07;3.15;;;0.50;;
70455;SDS011;57916;51.996;5.180;2023-01-19T03:41:36;2.40;;;0.40;;
70455;SDS011;57916;51.996;5.180;2023-01-19T03:44:06;2.63;;;0.30;;
70455;SDS011;57916;51.996;5.180;2023-01-19T03:46:33;2.55;;;0.30;;
70455;SDS011;57916;51.996;5.180;2023-01-19T03:49:00;1.00;;;0.28;;
70455;SDS011;57916;51.996;5.180;2023-01-19T03:51:27;0.60;;;0.13;;
70455;SDS011;57916;51.996;5.180;2023-01-19T03:53:54;2.92;;;0.52;;
70455;SDS011;57916;51.996;5.180;2023-01-19T03:56:22;4.30;;;0.45;;
70455;SDS011;57916;51.996;5.180;2023-01-19T03:58:50;1.98;;;0.60;;
70455;SDS011;57916;51.996;5.180;2023-01-19T04:01:18;2.70;;;0.50;;
70455;SDS011;57916;51.996;5.180;2023-01-19T04:03:48;5.05;;;0.80;;
70455;SDS011;57916;51.996;5.180;2023-01-19T04:06:16;6.47;;;0.90;;
70455;SDS011;57916;51.996;5.180;2023-01-19T04:08:43;4.50;;;0.60;;
70455;SDS011;57916;51.996;5.180;2023-01-19T04:11:10;2.30;;;0.50;;
70455;SDS011;57916;51.996;5.180;2023-01-19T04:13:37;2.80;;;0.70;;
70455;SDS011;57916;51.996;5.180;2023-01-19T04:16:04;6.50;;;0.60;;
70455;SDS011;57916;51.996;5.180;2023-01-19T04:18:33;3.15;;;0.75;;
70455;SDS011;57916;51.996;5.180;2023-01-19T04:21:01;3.22;;;0.60;;
70455;SDS011;57916;51.996;5.180;2023-01-19T04:23:29;3.75;;;0.40;;
70455;SDS011;57916;51.996;5.180;2023-01-19T04:26:00;4.50;;;0.63;;
70455;SDS011;57916;51.996;5.180;2023-01-19T04:28:29;4.07;;;0.60;;
70455;SDS011;57916;51.996;5.180;2023-01-19T04:30:57;4.35;;;0.63;;
70455;SDS011;57916;51.996;5.180;2023-01-19T04:33:23;5.75;;;0.70;;
70455;SDS011;57916;51.996;5.180;2023-01-19T04:35:51;2.22;;;0.50;;
70455;SDS011;57916;51.996;5.180;2023-01-19T04:38:19;3.47;;;0.60;;
70455;SDS011;57916;51.996;5.180;2023-01-19T04:40:48;3.42;;;0.40;;
70455;SDS011;57916;51.996;5.180;2023-01-19T04:43:16;4.75;;;0.50;;
70455;SDS011;57916;51.996;5.180;2023-01-19T04:45:42;5.32;;;0.85;;
70455;SDS011;57916;51.996;5.180;2023-01-19T04:48:10;3.40;;;0.55;;
70455;SDS011;57916;51.996;5.180;2023-01-19T04:50:38;1.88;;;0.50;;
70455;SDS011;57916;51.996;5.180;2023-01-19T04:53:05;1.67;;;0.50;;
70455;SDS011;57916;51.996;5.180;2023-01-19T04:55:32;1.95;;;0.57;;
70455;SDS011;57916;51.996;5.180;2023-01-19T04:57:59;1.80;;;0.50;;
70455;SDS011;57916;51.996;5.180;2023-01-19T05:00:26;4.65;;;0.75;;
70455;SDS011;57916;51.996;5.180;2023-01-19T05:02:53;6.05;;;0.57;;
70455;SDS011;57916;51.996;5.180;2023-01-19T05:05:20;5.38;;;0.70;;
70455;SDS011;57916;51.996;5.180;2023-01-19T05:07:47;5.93;;;0.80;;
70455;SDS011;57916;51.996;5.180;2023-01-19T05:10:14;5.57;;;0.95;;
70455;SDS011;57916;51.996;5.180;2023-01-19T05:12:41;6.15;;;1.00;;
70455;SDS011;57916;51.996;5.180;2023-01-19T05:15:08;2.47;;;0.60;;
70455;SDS011;57916;51.996;5.180;2023-01-19T05:17:35;4.10;;;0.95;;
70455;SDS011;57916;51.996;5.180;2023-01-19T05:20:03;9.30;;;1.10;;
70455;SDS011;57916;51.996;5.180;2023-01-19T05:22:30;7.57;;;1.48;;
70455;SDS011;57916;51.996;5.180;2023-01-19T05:24:58;10.13;;;1.10;;
70455;SDS011;57916;51.996;5.180;2023-01-19T05:27:26;5.82;;;1.40;;
70455;SDS011;57916;51.996;5.180;2023-01-19T05:29:53;11.15;;;1.40;;
70455;SDS011;57916;51.996;5.180;2023-01-19T05:32:20;10.60;;;1.53;;
70455;SDS011;57916;51.996;5.180;2023-01-19T05:34:47;9.88;;;1.30;;
70455;SDS011;57916;51.996;5.180;2023-01-19T05:37:13;10.35;;;1.42;;
70455;SDS011;57916;51.996;5.180;2023-01-19T05:39:40;9.02;;;1.55;;
70455;SDS011;57916;51.996;5.180;2023-01-19T05:42:07;9.02;;;1.50;;
70455;SDS011;57916;51.996;5.180;2023-01-19T05:44:34;8.17;;;1.70;;
70455;SDS011;57916;51.996;5.180;2023-01-19T05:47:00;10.45;;;1.60;;
70455;SDS011;57916;51.996;5.180;2023-01-19T05:49:27;9.25;;;1.75;;
70455;SDS011;57916;51.996;5.180;2023-01-19T05:51:54;7.47;;;1.40;;
70455;SDS011;57916;51.996;5.180;2023-01-19T05:54:21;7.35;;;1.80;;
70455;SDS011;57916;51.996;5.180;2023-01-19T05:56:48;8.05;;;2.00;;
70455;SDS011;57916;51.996;5.180;2023-01-19T05:59:14;11.75;;;1.90;;
70455;SDS011;57916;51.996;5.180;2023-01-19T06:01:46;7.70;;;1.88;;
70455;SDS011;57916;51.996;5.180;2023-01-19T06:04:13;8.00;;;2.08;;
70455;SDS011;57916;51.996;5.180;2023-01-19T06:06:40;10.45;;;1.98;;
70455;SDS011;57916;51.996;5.180;2023-01-19T06:09:07;6.25;;;2.25;;
70455;SDS011;57916;51.996;5.180;2023-01-19T06:11:33;9.50;;;2.10;;
70455;SDS011;57916;51.996;5.180;2023-01-19T06:14:00;4.80;;;2.00;;
70455;SDS011;57916;51.996;5.180;2023-01-19T06:16:27;12.43;;;2.33;;
70455;SDS011;57916;51.996;5.180;2023-01-19T06:18:54;8.95;;;2.00;;
70455;SDS011;57916;51.996;5.180;2023-01-19T06:21:21;11.73;;;2.40;;
70455;SDS011;57916;51.996;5.180;2023-01-19T06:23:47;17.65;;;2.08;;
70455;SDS011;57916;51.996;5.180;2023-01-19T06:26:14;14.55;;;2.28;;
70455;SDS011;57916;51.996;5.180;2023-01-19T06:28:41;9.05;;;1.80;;
70455;SDS011;57916;51.996;5.180;2023-01-19T06:31:08;16.45;;;2.40;;
70455;SDS011;57916;51.996;5.180;2023-01-19T06:33:35;18.02;;;3.03;;
70455;SDS011;57916;51.996;5.180;2023-01-19T06:36:01;13.15;;;1.98;;
70455;SDS011;57916;51.996;5.180;2023-01-19T06:38:28;18.55;;;2.30;;
70455;SDS011;57916;51.996;5.180;2023-01-19T06:40:56;13.15;;;2.15;;
70455;SDS011;57916;51.996;5.180;2023-01-19T06:43:24;12.48;;;1.77;;
70455;SDS011;57916;51.996;5.180;2023-01-19T06:45:51;9.40;;;1.98;;
70455;SDS011;57916;51.996;5.180;2023-01-19T06:48:19;14.52;;;2.05;;
70455;SDS011;57916;51.996;5.180;2023-01-19T06:50:46;18.20;;;1.90;;
70455;SDS011;57916;51.996;5.180;2023-01-19T06:53:14;15.97;;;1.60;;
70455;SDS011;57916;51.996;5.180;2023-01-19T06:55:42;20.35;;;2.25;;
70455;SDS011;57916;51.996;5.180;2023-01-19T06:58:09;18.77;;;2.27;;
70455;SDS011;57916;51.996;5.180;2023-01-19T07:00:36;19.58;;;2.50;;
70455;SDS011;57916;51.996;5.180;2023-01-19T07:03:06;16.33;;;2.05;;
70455;SDS011;57916;51.996;5.180;2023-01-19T07:05:37;18.08;;;2.10;;
70455;SDS011;57916;51.996;5.180;2023-01-19T07:08:03;16.50;;;1.97;;
70455;SDS011;57916;51.996;5.180;2023-01-19T07:10:30;18.73;;;2.38;;
70455;SDS011;57916;51.996;5.180;2023-01-19T07:13:17;11.90;;;2.08;;
70455;SDS011;57916;51.996;5.180;2023-01-19T07:15:44;18.40;;;2.38;;
70455;SDS011;57916;51.996;5.180;2023-01-19T07:18:11;21.67;;;2.43;;
70455;SDS011;57916;51.996;5.180;2023-01-19T07:20:38;21.27;;;2.50;;
70455;SDS011;57916;51.996;5.180;2023-01-19T07:23:04;16.27;;;2.58;;
70455;SDS011;57916;51.996;5.180;2023-01-19T07:25:31;22.27;;;2.70;;
70455;SDS011;57916;51.996;5.180;2023-01-19T07:27:58;13.32;;;2.10;;
70455;SDS011;57916;51.996;5.180;2023-01-19T07:30:25;13.20;;;2.28;;
70455;SDS011;57916;51.996;5.180;2023-01-19T07:32:56;13.43;;;2.05;;
70455;SDS011;57916;51.996;5.180;2023-01-19T07:35:24;17.27;;;2.28;;
70455;SDS011;57916;51.996;5.180;2023-01-19T07:37:51;17.00;;;2.10;;
70455;SDS011;57916;51.996;5.180;2023-01-19T07:40:18;21.13;;;2.90;;
70455;SDS011;57916;51.996;5.180;2023-01-19T07:42:45;16.77;;;2.20;;
70455;SDS011;57916;51.996;5.180;2023-01-19T07:45:17;17.95;;;2.72;;
70455;SDS011;57916;51.996;5.180;2023-01-19T07:47:48;20.25;;;3.05;;
70455;SDS011;57916;51.996;5.180;2023-01-19T07:50:15;16.85;;;2.50;;
70455;SDS011;57916;51.996;5.180;2023-01-19T07:52:43;18.35;;;2.70;;
70455;SDS011;57916;51.996;5.180;2023-01-19T07:55:10;19.88;;;2.40;;
70455;SDS011;57916;51.996;5.180;2023-01-19T07:57:37;19.48;;;2.65;;
70455;SDS011;57916;51.996;5.180;2023-01-19T08:00:04;10.88;;;1.85;;
70455;SDS011;57916;51.996;5.180;2023-01-19T08:02:37;21.93;;;2.53;;
70455;SDS011;57916;51.996;5.180;2023-01-19T08:05:04;18.52;;;2.20;;
70455;SDS011;57916;51.996;5.180;2023-01-19T08:07:32;21.48;;;2.42;;
70455;SDS011;57916;51.996;5.180;2023-01-19T08:09:59;12.02;;;1.80;;
70455;SDS011;57916;51.996;5.180;2023-01-19T08:12:26;19.13;;;2.35;;
70455;SDS011;57916;51.996;5.180;2023-01-19T08:14:53;16.25;;;1.98;;
70455;SDS011;57916;51.996;5.180;2023-01-19T08:17:20;16.38;;;2.10;;
70455;SDS011;57916;51.996;5.180;2023-01-19T08:19:46;15.25;;;2.08;;
70455;SDS011;57916;51.996;5.180;2023-01-19T08:22:13;10.55;;;1.70;;
70455;SDS011;57916;51.996;5.180;2023-01-19T08:24:40;16.70;;;1.90;;
70455;SDS011;57916;51.996;5.180;2023-01-19T08:27:07;18.33;;;2.20;;
70455;SDS011;57916;51.996;5.180;2023-01-19T08:29:35;16.85;;;2.30;;
70455;SDS011;57916;51.996;5.180;2023-01-19T08:32:02;15.70;;;1.53;;
70455;SDS011;57916;51.996;5.180;2023-01-19T08:34:30;16.83;;;1.73;;
70455;SDS011;57916;51.996;5.180;2023-01-19T08:36:57;9.48;;;1.58;;
70455;SDS011;57916;51.996;5.180;2023-01-19T08:39:24;12.37;;;1.40;;
70455;SDS011;57916;51.996;5.180;2023-01-19T08:41:52;12.73;;;1.67;;
70455;SDS011;57916;51.996;5.180;2023-01-19T08:44:20;16.38;;;1.90;;
70455;SDS011;57916;51.996;5.180;2023-01-19T08:46:47;9.20;;;1.80;;
70455;SDS011;57916;51.996;5.180;2023-01-19T08:49:13;8.73;;;1.83;;
70455;SDS011;57916;51.996;5.180;2023-01-19T08:51:41;12.73;;;2.42;;
70455;SDS011;57916;51.996;5.180;2023-01-19T08:54:11;9.75;;;1.75;;
70455;SDS011;57916;51.996;5.180;2023-01-19T08:56:38;8.13;;;1.70;;
70455;SDS011;57916;51.996;5.180;2023-01-19T08:59:05;13.03;;;2.23;;
70455;SDS011;57916;51.996;5.180;2023-01-19T09:01:36;14.57;;;2.25;;
70455;SDS011;57916;51.996;5.180;2023-01-19T09:04:03;9.83;;;1.60;;
70455;SDS011;57916;51.996;5.180;2023-01-19T09:06:30;14.15;;;1.60;;
70455;SDS011;57916;51.996;5.180;2023-01-19T09:08:58;9.10;;;1.40;;
70455;SDS011;57916;51.996;5.180;2023-01-19T09:11:25;11.45;;;1.67;;
70455;SDS011;57916;51.996;5.180;2023-01-19T09:13:52;10.13;;;1.30;;
70455;SDS011;57916;51.996;5.180;2023-01-19T09:16:19;10.98;;;1.80;;
70455;SDS011;57916;51.996;5.180;2023-01-19T09:18:46;12.43;;;1.73;;
70455;SDS011;57916;51.996;5.180;2023-01-19T09:21:14;11.10;;;1.73;;
70455;SDS011;57916;51.996;5.180;2023-01-19T09:23:41;13.88;;;1.88;;
70455;SDS011;57916;51.996;5.180;2023-01-19T09:26:08;12.10;;;1.83;;
70455;SDS011;57916;51.996;5.180;2023-01-19T09:28:36;15.18;;;2.03;;
70455;SDS011;57916;51.996;5.180;2023-01-19T09:31:04;10.18;;;1.75;;
70455;SDS011;57916;51.996;5.180;2023-01-19T09:33:32;8.90;;;1.50;;
70455;SDS011;57916;51.996;5.180;2023-01-19T09:36:00;9.00;;;1.50;;
70455;SDS011;57916;51.996;5.180;2023-01-19T09:38:27;11.45;;;1.95;;
70455;SDS011;57916;51.996;5.180;2023-01-19T09:40:58;9.05;;;1.55;;
70455;SDS011;57916;51.996;5.180;2023-01-19T09:43:34;13.95;;;1.65;;
70455;SDS011;57916;51.996;5.180;2023-01-19T09:46:24;11.38;;;1.67;;
70455;SDS011;57916;51.996;5.180;2023-01-19T09:48:53;13.73;;;1.83;;
70455;SDS011;57916;51.996;5.180;2023-01-19T09:51:24;10.38;;;1.80;;
70455;SDS011;57916;51.996;5.180;2023-01-19T09:56:41;8.38;;;1.77;;
70455;SDS011;57916;51.996;5.180;2023-01-19T09:59:28;14.00;;;1.70;;
70455;SDS011;57916;51.996;5.180;2023-01-19T10:05:04;13.15;;;1.80;;
70455;SDS011;57916;51.996;5.180;2023-01-19T10:10:20;10.93;;;2.60;;
70455;SDS011;57916;51.996;5.180;2023-01-19T10:18:48;9.75;;;1.70;;
70455;SDS011;57916;51.996;5.180;2023-01-19T10:21:21;14.55;;;2.33;;
70455;SDS011;57916;51.996;5.180;2023-01-19T10:26:47;11.40;;;2.15;;
70455;SDS011;57916;51.996;5.180;2023-01-19T10:32:13;14.38;;;2.22;;
70455;SDS011;57916;51.996;5.180;2023-01-19T10:34:43;13.02;;;2.03;;
70455;SDS011;57916;51.996;5.180;2023-01-19T10:39:43;13.45;;;1.85;;
70455;SDS011;57916;51.996;5.180;2023-01-19T10:42:11;11.57;;;2.42;;
70455;SDS011;57916;51.996;5.180;2023-01-19T10:44:41;10.80;;;2.03;;
70455;SDS011;57916;51.996;5.180;2023-01-19T10:47:17;9.87;;;2.00;;
70455;SDS011;57916;51.996;5.180;2023-01-19T10:49:46;16.35;;;2.20;;
70455;SDS011;57916;51.996;5.180;2023-01-19T10:55:01;9.37;;;2.00;;
70455;SDS011;57916;51.996;5.180;2023-01-19T10:57:30;9.80;;;1.90;;
70455;SDS011;57916;51.996;5.180;2023-01-19T11:00:04;10.57;;;1.90;;
70455;SDS011;57916;51.996;5.180;2023-01-19T11:02:39;13.45;;;2.00;;
70455;SDS011;57916;51.996;5.180;2023-01-19T11:05:33;9.00;;;1.60;;
70455;SDS011;57916;51.996;5.180;2023-01-19T11:08:00;13.20;;;1.73;;
70455;SDS011;57916;51.996;5.180;2023-01-19T11:11:00;8.13;;;1.70;;
70455;SDS011;57916;51.996;5.180;2023-01-19T11:13:30;10.88;;;1.88;;
70455;SDS011;57916;51.996;5.180;2023-01-19T11:16:21;7.95;;;1.75;;
70455;SDS011;57916;51.996;5.180;2023-01-19T11:18:50;7.22;;;1.60;;
70455;SDS011;57916;51.996;5.180;2023-01-19T11:21:20;11.23;;;1.55;;
70455;SDS011;57916;51.996;5.180;2023-01-19T11:23:52;8.43;;;1.52;;
70455;SDS011;57916;51.996;5.180;2023-01-19T11:28:58;7.00;;;1.30;;
70455;SDS011;57916;51.996;5.180;2023-01-19T11:33:56;5.22;;;1.10;;
70455;SDS011;57916;51.996;5.180;2023-01-19T11:36:35;4.53;;;0.93;;
70455;SDS011;57916;51.996;5.180;2023-01-19T11:41:48;7.97;;;1.10;;
70455;SDS011;57916;51.996;5.180;2023-01-19T11:44:18;5.00;;;1.13;;
70455;SDS011;57916;51.996;5.180;2023-01-19T11:47:22;5.78;;;0.80;;
70455;SDS011;57916;51.996;5.180;2023-01-19T11:55:57;3.67;;;1.20;;
70455;SDS011;57916;51.996;5.180;2023-01-19T11:58:32;5.63;;;1.05;;
70455;SDS011;57916;51.996;5.180;2023-01-19T12:01:06;7.25;;;1.30;;
70455;SDS011;57916;51.996;5.180;2023-01-19T12:03:54;6.70;;;1.17;;
70455;SDS011;57916;51.996;5.180;2023-01-19T12:06:30;5.53;;;1.00;;
70455;SDS011;57916;51.996;5.180;2023-01-19T12:09:02;5.70;;;1.00;;
70455;SDS011;57916;51.996;5.180;2023-01-19T12:11:43;2.25;;;0.98;;
70455;SDS011;57916;51.996;5.180;2023-01-19T12:15:17;3.90;;;0.70;;
70455;SDS011;57916;51.996;5.180;2023-01-19T12:17:24;4.47;;;0.70;;
70455;SDS011;57916;51.996;5.180;2023-01-19T12:19:55;6.53;;;0.80;;
70455;SDS011;57916;51.996;5.180;2023-01-19T12:22:28;5.82;;;1.10;;
70455;SDS011;57916;51.996;5.180;2023-01-19T12:25:12;2.47;;;1.13;;
70455;SDS011;57916;51.996;5.180;2023-01-19T12:27:43;3.58;;;0.88;;
70455;SDS011;57916;51.996;5.180;2023-01-19T12:30:16;7.03;;;1.10;;
70455;SDS011;57916;51.996;5.180;2023-01-19T12:32:46;5.88;;;1.10;;
70455;SDS011;57916;51.996;5.180;2023-01-19T12:38:34;7.90;;;1.30;;
70455;SDS011;57916;51.996;5.180;2023-01-19T12:41:16;7.35;;;1.40;;
70455;SDS011;57916;51.996;5.180;2023-01-19T12:49:32;6.30;;;1.10;;
70455;SDS011;57916;51.996;5.180;2023-01-19T12:55:00;4.97;;;1.02;;
70455;SDS011;57916;51.996;5.180;2023-01-19T12:57:45;3.45;;;0.93;;
70455;SDS011;57916;51.996;5.180;2023-01-19T13:02:55;5.85;;;2.03;;
70455;SDS011;57916;51.996;5.180;2023-01-19T13:13:29;3.70;;;1.30;;
70455;SDS011;57916;51.996;5.180;2023-01-19T13:23:59;5.20;;;0.98;;
70455;SDS011;57916;51.996;5.180;2023-01-19T13:26:32;5.32;;;1.00;;
70455;SDS011;57916;51.996;5.180;2023-01-19T13:32:11;3.78;;;0.90;;
70455;SDS011;57916;51.996;5.180;2023-01-19T13:34:41;5.15;;;1.10;;
70455;SDS011;57916;51.996;5.180;2023-01-19T13:37:18;4.97;;;1.02;;
70455;SDS011;57916;51.996;5.180;2023-01-19T13:39:47;3.90;;;0.97;;
70455;SDS011;57916;51.996;5.180;2023-01-19T13:42:30;5.15;;;1.08;;
70455;SDS011;57916;51.996;5.180;2023-01-19T13:48:04;9.38;;;1.98;;
70455;SDS011;57916;51.996;5.180;2023-01-19T13:50:36;3.35;;;1.13;;
70455;SDS011;57916;51.996;5.180;2023-01-19T13:53:15;4.97;;;1.00;;
70455;SDS011;57916;51.996;5.180;2023-01-19T13:56:06;4.05;;;1.00;;
70455;SDS011;57916;51.996;5.180;2023-01-19T13:58:34;6.00;;;1.08;;
70455;SDS011;57916;51.996;5.180;2023-01-19T14:01:00;7.30;;;1.33;;
70455;SDS011;57916;51.996;5.180;2023-01-19T14:03:27;5.18;;;1.02;;
70455;SDS011;57916;51.996;5.180;2023-01-19T14:05:54;5.60;;;1.10;;
70455;SDS011;57916;51.996;5.180;2023-01-19T14:08:21;11.40;;;2.25;;
70455;SDS011;57916;51.996;5.180;2023-01-19T14:13:24;4.78;;;1.40;;
70455;SDS011;57916;51.996;5.180;2023-01-19T14:15:56;4.10;;;0.90;;
70455;SDS011;57916;51.996;5.180;2023-01-19T14:18:28;8.07;;;1.30;;
70455;SDS011;57916;51.996;5.180;2023-01-19T14:23:37;4.15;;;1.10;;
70455;SDS011;57916;51.996;5.180;2023-01-19T14:29:21;2.40;;;0.85;;
70455;SDS011;57916;51.996;5.180;2023-01-19T14:32:14;5.60;;;1.20;;
70455;SDS011;57916;51.996;5.180;2023-01-19T14:34:45;4.03;;;1.30;;
70455;SDS011;57916;51.996;5.180;2023-01-19T14:37:16;2.85;;;1.00;;
70455;SDS011;57916;51.996;5.180;2023-01-19T14:40:15;5.80;;;1.40;;
70455;SDS011;57916;51.996;5.180;2023-01-19T14:42:54;5.47;;;1.20;;
70455;SDS011;57916;51.996;5.180;2023-01-19T14:45:33;3.53;;;1.10;;
70455;SDS011;57916;51.996;5.180;2023-01-19T14:48:02;3.80;;;1.10;;
70455;SDS011;57916;51.996;5.180;2023-01-19T14:50:32;4.30;;;0.80;;
70455;SDS011;57916;51.996;5.180;2023-01-19T14:53:05;4.65;;;1.98;;
70455;SDS011;57916;51.996;5.180;2023-01-19T14:58:13;7.47;;;1.63;;
70455;SDS011;57916;51.996;5.180;2023-01-19T15:00:42;3.67;;;1.45;;
70455;SDS011;57916;51.996;5.180;2023-01-19T15:03:10;6.15;;;1.33;;
70455;SDS011;57916;51.996;5.180;2023-01-19T15:05:38;6.80;;;1.20;;
70455;SDS011;57916;51.996;5.180;2023-01-19T15:08:07;5.18;;;1.20;;
70455;SDS011;57916;51.996;5.180;2023-01-19T15:10:40;5.40;;;1.20;;
70455;SDS011;57916;51.996;5.180;2023-01-19T15:13:09;3.45;;;1.05;;
70455;SDS011;57916;51.996;5.180;2023-01-19T15:15:44;3.17;;;0.90;;
70455;SDS011;57916;51.996;5.180;2023-01-19T15:18:15;5.57;;;1.13;;
70455;SDS011;57916;51.996;5.180;2023-01-19T15:20:46;3.38;;;0.80;;
70455;SDS011;57916;51.996;5.180;2023-01-19T15:23:12;4.03;;;1.08;;
70455;SDS011;57916;51.996;5.180;2023-01-19T15:25:39;4.32;;;0.90;;
70455;SDS011;57916;51.996;5.180;2023-01-19T15:28:10;2.53;;;0.82;;
70455;SDS011;57916;51.996;5.180;2023-01-19T15:30:38;5.53;;;1.17;;
70455;SDS011;57916;51.996;5.180;2023-01-19T15:33:05;2.95;;;1.10;;
70455;SDS011;57916;51.996;5.180;2023-01-19T15:35:34;2.80;;;1.40;;
70455;SDS011;57916;51.996;5.180;2023-01-19T15:38:01;5.03;;;1.10;;
70455;SDS011;57916;51.996;5.180;2023-01-19T15:40:28;2.80;;;0.90;;
70455;SDS011;57916;51.996;5.180;2023-01-19T15:42:55;3.47;;;1.02;;
70455;SDS011;57916;51.996;5.180;2023-01-19T15:45:32;6.13;;;1.30;;
70455;SDS011;57916;51.996;5.180;2023-01-19T15:48:02;2.70;;;1.30;;
70455;SDS011;57916;51.996;5.180;2023-01-19T15:50:31;6.25;;;1.83;;
70455;SDS011;57916;51.996;5.180;2023-01-19T15:52:58;2.88;;;1.38;;
70455;SDS011;57916;51.996;5.180;2023-01-19T15:55:25;7.50;;;1.75;;
70455;SDS011;57916;51.996;5.180;2023-01-19T15:57:52;7.38;;;1.80;;
70455;SDS011;57916;51.996;5.180;2023-01-19T16:00:20;5.93;;;1.23;;
70455;SDS011;57916;51.996;5.180;2023-01-19T16:02:47;4.82;;;1.23;;
70455;SDS011;57916;51.996;5.180;2023-01-19T16:05:15;3.38;;;1.30;;
70455;SDS011;57916;51.996;5.180;2023-01-19T16:07:42;4.00;;;1.20;;
70455;SDS011;57916;51.996;5.180;2023-01-19T16:10:09;4.53;;;1.20;;
70455;SDS011;57916;51.996;5.180;2023-01-19T16:12:38;3.67;;;1.38;;
70455;SDS011;57916;51.996;5.180;2023-01-19T16:15:05;6.32;;;1.42;;
70455;SDS011;57916;51.996;5.180;2023-01-19T16:17:32;5.30;;;1.52;;
70455;SDS011;57916;51.996;5.180;2023-01-19T16:19:59;6.57;;;1.48;;
70455;SDS011;57916;51.996;5.180;2023-01-19T16:22:26;4.10;;;1.48;;
70455;SDS011;57916;51.996;5.180;2023-01-19T16:24:52;7.30;;;1.48;;
70455;SDS011;57916;51.996;5.180;2023-01-19T16:27:22;4.27;;;1.20;;
70455;SDS011;57916;51.996;5.180;2023-01-19T16:29:49;4.38;;;1.20;;
70455;SDS011;57916;51.996;5.180;2023-01-19T16:32:16;2.42;;;1.35;;
70455;SDS011;57916;51.996;5.180;2023-01-19T16:34:44;4.87;;;1.33;;
70455;SDS011;57916;51.996;5.180;2023-01-19T16:37:11;4.97;;;1.20;;
70455;SDS011;57916;51.996;5.180;2023-01-19T16:39:37;5.25;;;1.35;;
70455;SDS011;57916;51.996;5.180;2023-01-19T16:42:04;3.75;;;1.25;;
70455;SDS011;57916;51.996;5.180;2023-01-19T16:44:31;7.00;;;1.75;;
70455;SDS011;57916;51.996;5.180;2023-01-19T16:46:58;4.28;;;1.88;;